Linzy — SIRU — position and weather

sailwx.info

Track history (hours):
 
Tides and Currents Weather Stations Pressure Air Temp Water Temp Dewpoint Dewpoint Depression Visibility Wind Speed Wind Dir Waves Ship Positions

Linzy

Last reported at 2017-Jun-27 19:50 UTC. Time now 2017-Jun-27 20:52 UTC.
Position N 55°33' E 014°22'.

Length 15 m.

Type: Fishing. MMSI: 265507290.

Date/timePositionNaut miles runAvg speedWind from/ knotsBaromVisibWave heightAir tempDewpointWater temp
2017-Jun-27 19:50N 55°33' E 014°22'0 0.0
2017-Jun-27 19:20N 55°33' E 014°22'0 0.0
2017-Jun-27 18:56N 55°33' E 014°22'0 0.0
2017-Jun-27 18:26N 55°33' E 014°22'0 0.0
2017-Jun-27 17:50N 55°33' E 014°22'0 0.0
2017-Jun-27 17:14N 55°33' E 014°22'0 0.0
2017-Jun-27 16:56N 55°33' E 014°22'0 0.0
2017-Jun-27 15:44N 55°33' E 014°22'0 0.0
2017-Jun-27 15:20N 55°33' E 014°22'0 0.0
2017-Jun-27 14:50N 55°33' E 014°22'0 0.0
2017-Jun-27 14:26N 55°33' E 014°22'0 0.0
2017-Jun-27 13:20N 55°33' E 014°22'0 0.0
2017-Jun-27 12:56N 55°33' E 014°22'0 0.0
2017-Jun-27 12:19N 55°33' E 014°22'2 5.4
2017-Jun-27 12:00N 55°34' E 014°24'2 3.6
2017-Jun-27 11:26N 55°33' E 014°28'2 5.1
2017-Jun-27 10:59N 55°33' E 014°32'3 6.2
2017-Jun-27 10:28N 55°32' E 014°37'3 6.0
2017-Jun-27 09:55N 55°31' E 014°43'3 5.9
2017-Jun-27 09:29N 55°30' E 014°47'3 5.4
2017-Jun-27 08:55N 55°30' E 014°53'1 0.8
2017-Jun-27 08:03N 55°29' E 014°53'0 0.8
2017-Jun-27 07:59N 55°29' E 014°53'1 3.1
2017-Jun-27 07:30N 55°30' E 014°51'2 3.0
2017-Jun-27 06:59N 55°30' E 014°49'4 2.7
2017-Jun-27 05:23N 55°30' E 014°41'1 2.9
2017-Jun-27 04:55N 55°29' E 014°39'1 3.0
2017-Jun-27 04:30N 55°28' E 014°37'2 3.0
2017-Jun-27 03:59N 55°28' E 014°34'1 3.1
2017-Jun-27 03:30N 55°27' E 014°32'2 3.0
2017-Jun-27 02:59N 55°27' E 014°29'4 7.8
2017-Jun-27 02:28N 55°30' E 014°26'4 8.0
2017-Jun-27 01:59N 55°33' E 014°22'0 0.2
2017-Jun-27 00:20N 55°33' E 014°22'0 0.0
2017-Jun-26 23:44N 55°33' E 014°22'0 0.0
2017-Jun-26 23:08N 55°33' E 014°22'0 0.0
2017-Jun-26 22:50N 55°33' E 014°22'0 0.0
2017-Jun-26 22:20N 55°33' E 014°22'0 0.0
2017-Jun-26 20:56N 55°33' E 014°22'0 0.0
2017-Jun-26 20:08N 55°33' E 014°22'0 0.0
2017-Jun-26 19:32N 55°33' E 014°22'0 0.0
2017-Jun-26 19:20N 55°33' E 014°22'0 0.0
2017-Jun-26 18:50N 55°33' E 014°22'0 0.0
2017-Jun-26 17:44N 55°33' E 014°22'0 0.0
2017-Jun-26 17:26N 55°33' E 014°22'0 0.0
2017-Jun-26 16:56N 55°33' E 014°22'0 0.0
2017-Jun-26 16:20N 55°33' E 014°22'0 0.0
2017-Jun-26 15:56N 55°33' E 014°22'0 0.0
2017-Jun-26 14:32N 55°33' E 014°22'0 0.0
2017-Jun-26 13:38N 55°33' E 014°22'0 0.0
2017-Jun-26 13:26N 55°33' E 014°22'0 0.0
2017-Jun-26 12:26N 55°33' E 014°22'0 0.0
2017-Jun-26 11:02N 55°33' E 014°22'0 0.0
2017-Jun-26 10:50N 55°33' E 014°22'0 0.0
2017-Jun-26 10:26N 55°33' E 014°22'0 0.0
2017-Jun-26 09:56N 55°33' E 014°22'0 0.0
2017-Jun-26 09:26N 55°33' E 014°22'0 0.0
2017-Jun-26 08:14N 55°33' E 014°22'0 0.0
2017-Jun-26 06:32N 55°33' E 014°22'0 0.0
2017-Jun-26 06:26N 55°33' E 014°22'0 0.0
2017-Jun-26 04:44N 55°33' E 014°22'0 0.0
2017-Jun-26 04:14N 55°33' E 014°22'0 0.0
2017-Jun-26 03:56N 55°33' E 014°22'0 0.0
2017-Jun-26 03:14N 55°33' E 014°22'0 0.0
2017-Jun-26 02:56N 55°33' E 014°22'0 0.0
2017-Jun-26 01:44N 55°33' E 014°22'0 0.0
2017-Jun-26 01:26N 55°33' E 014°22'0 0.0
2017-Jun-26 00:50N 55°33' E 014°22'0 0.0
2017-Jun-26 00:26N 55°33' E 014°22'0 0.0
2017-Jun-25 23:02N 55°33' E 014°22'0 0.0
2017-Jun-25 22:50N 55°33' E 014°22'0 0.0
2017-Jun-25 22:26N 55°33' E 014°22'0 0.0
2017-Jun-25 21:32N 55°33' E 014°22'0 0.0
2017-Jun-25 20:26N 55°33' E 014°22'0 0.0
2017-Jun-25 19:56N 55°33' E 014°22'0 0.0
2017-Jun-25 19:08N 55°33' E 014°22'0 0.0
2017-Jun-25 17:50N 55°33' E 014°22'0 0.0
2017-Jun-25 17:26N 55°33' E 014°22'0 0.0
2017-Jun-25 16:56N 55°33' E 014°22'0 0.0
2017-Jun-25 16:26N 55°33' E 014°22'0 0.0
2017-Jun-25 14:02N 55°33' E 014°22'0 0.0
2017-Jun-25 12:50N 55°33' E 014°22'0 0.0
2017-Jun-25 12:08N 55°33' E 014°22'0 0.0
2017-Jun-25 11:56N 55°33' E 014°22'0 0.0
2017-Jun-25 11:14N 55°33' E 014°22'0 0.0
2017-Jun-25 10:44N 55°33' E 014°22'0 0.0
2017-Jun-25 08:38N 55°33' E 014°22'0 0.0
2017-Jun-25 08:14N 55°33' E 014°22'0 0.0
2017-Jun-25 07:56N 55°33' E 014°22'0 0.0
2017-Jun-25 07:14N 55°33' E 014°22'0 0.0
2017-Jun-25 06:50N 55°33' E 014°22'0 0.0
2017-Jun-25 06:26N 55°33' E 014°22'0 0.0
2017-Jun-25 05:08N 55°33' E 014°22'0 0.0
2017-Jun-25 03:38N 55°33' E 014°22'0 0.0
2017-Jun-25 03:20N 55°33' E 014°22'0 0.0
2017-Jun-25 02:14N 55°33' E 014°22'0 0.0
2017-Jun-25 01:56N 55°33' E 014°22'0 0.0
2017-Jun-25 01:20N 55°33' E 014°22'0 0.0
2017-Jun-25 00:32N 55°33' E 014°22'0 0.0
2017-Jun-25 00:08N 55°33' E 014°22'0 0.0
2017-Jun-24 23:50N 55°33' E 014°22'0 0.0
2017-Jun-24 23:20N 55°33' E 014°22'0 0.0
2017-Jun-24 22:44N 55°33' E 014°22'0 0.0
2017-Jun-24 22:14N 55°33' E 014°22'0 0.0
2017-Jun-24 21:56N 55°33' E 014°22'0 0.0
2017-Jun-24 20:44N 55°33' E 014°22'0 0.0
2017-Jun-24 20:20N 55°33' E 014°22'0 0.0
2017-Jun-24 19:50N 55°33' E 014°22'0 0.0
2017-Jun-24 19:26N 55°33' E 014°22'0 0.0
2017-Jun-24 18:32N 55°33' E 014°22'0 0.0
2017-Jun-24 18:20N 55°33' E 014°22'0 0.0
2017-Jun-24 17:56N 55°33' E 014°22'0 0.0
2017-Jun-24 17:26N 55°33' E 014°22'0 0.0
2017-Jun-24 16:56N 55°33' E 014°22'0 0.0
2017-Jun-24 16:08N 55°33' E 014°22'0 0.0
2017-Jun-24 15:56N 55°33' E 014°22'0 0.0
2017-Jun-24 15:20N 55°33' E 014°22'0 0.0
2017-Jun-24 14:57N 55°33' E 014°22'0 0.0
2017-Jun-24 13:27N 55°33' E 014°22'0 0.0
2017-Jun-24 12:32N 55°33' E 014°22'0 0.0
2017-Jun-24 12:21N 55°33' E 014°22'0 0.0
2017-Jun-24 11:44N 55°33' E 014°22'0 0.0
2017-Jun-24 11:27N 55°33' E 014°22'0 0.0
2017-Jun-24 10:51N 55°33' E 014°22'0 0.0
2017-Jun-24 10:21N 55°33' E 014°22'0 0.0
2017-Jun-24 09:03N 55°33' E 014°22'0 0.0
2017-Jun-24 07:51N 55°33' E 014°22'0 0.0
2017-Jun-24 07:27N 55°33' E 014°22'0 0.0
2017-Jun-24 06:57N 55°33' E 014°22'0 0.0
2017-Jun-24 06:27N 55°33' E 014°22'0 0.0
2017-Jun-24 05:51N 55°33' E 014°22'0 0.0
2017-Jun-24 05:27N 55°33' E 014°22'0 0.0
2017-Jun-24 04:51N 55°33' E 014°22'0 0.0
2017-Jun-24 04:15N 55°33' E 014°22'0 0.0
2017-Jun-24 03:57N 55°33' E 014°22'0 0.0
2017-Jun-24 03:27N 55°33' E 014°22'0 0.0
2017-Jun-24 02:57N 55°33' E 014°22'0 0.0
2017-Jun-24 02:27N 55°33' E 014°22'0 0.0
2017-Jun-24 01:51N 55°33' E 014°22'0 0.0
2017-Jun-24 01:27N 55°33' E 014°22'0 0.0
2017-Jun-24 00:51N 55°33' E 014°22'0 0.0
2017-Jun-24 00:27N 55°33' E 014°22'0 0.0
2017-Jun-23 23:15N 55°33' E 014°22'0 0.0
2017-Jun-23 22:57N 55°33' E 014°22'0 0.0
2017-Jun-23 22:27N 55°33' E 014°22'0 0.0
2017-Jun-23 21:21N 55°33' E 014°22'0 0.0
2017-Jun-23 20:57N 55°33' E 014°22'0 0.0
2017-Jun-23 20:09N 55°33' E 014°22'0 0.0
2017-Jun-23 19:51N 55°33' E 014°22'0 0.0
2017-Jun-23 19:27N 55°33' E 014°22'0 0.0
2017-Jun-23 18:45N 55°33' E 014°22'0 0.0
2017-Jun-23 18:27N 55°33' E 014°22'0 0.0
2017-Jun-23 17:51N 55°33' E 014°22'0 0.0
2017-Jun-23 15:45N 55°33' E 014°22'0 0.0
2017-Jun-23 15:27N 55°33' E 014°22'0 0.0
2017-Jun-23 14:57N 55°33' E 014°22'0 0.0
2017-Jun-23 14:27N 55°33' E 014°22'0 0.0
2017-Jun-23 13:03N 55°33' E 014°22'0 0.0
2017-Jun-23 12:57N 55°33' E 014°22'0 0.0
2017-Jun-23 12:27N 55°33' E 014°22'0 0.0
2017-Jun-23 11:51N 55°33' E 014°22'0 0.0
2017-Jun-23 11:27N 55°33' E 014°22'0 0.0
2017-Jun-23 10:57N 55°33' E 014°22'0 0.0
2017-Jun-23 10:27N 55°33' E 014°22'0 0.0
2017-Jun-23 09:57N 55°33' E 014°22'0 0.0
2017-Jun-23 09:30N 55°33' E 014°22'0 0.0
2017-Jun-23 06:39N 55°33' E 014°22'0 0.0
2017-Jun-23 06:27N 55°33' E 014°22'0 0.0
2017-Jun-23 05:57N 55°33' E 014°22'0 0.0
2017-Jun-23 05:27N 55°33' E 014°22'0 0.0
2017-Jun-23 04:57N 55°33' E 014°22'0 0.0
2017-Jun-23 04:21N 55°33' E 014°22'0 0.0
2017-Jun-23 03:39N 55°33' E 014°22'0 0.0
2017-Jun-23 03:21N 55°33' E 014°22'0 0.0
2017-Jun-23 02:51N 55°33' E 014°22'0 0.0
2017-Jun-23 02:27N 55°33' E 014°22'0 0.0
2017-Jun-23 01:45N 55°33' E 014°22'0 0.0
2017-Jun-23 01:15N 55°33' E 014°22'0 0.0
2017-Jun-23 00:39N 55°33' E 014°22'0 0.0
2017-Jun-22 23:15N 55°33' E 014°22'0 0.0
2017-Jun-22 22:54N 55°33' E 014°22'0 0.0
2017-Jun-22 22:27N 55°33' E 014°22'0 0.0
2017-Jun-22 21:27N 55°33' E 014°22'0 0.0
2017-Jun-22 20:57N 55°33' E 014°22'0 0.0
2017-Jun-22 18:57N 55°33' E 014°22'0 0.0
2017-Jun-22 18:27N 55°33' E 014°22'0 0.0
2017-Jun-22 17:57N 55°33' E 014°22'0 0.0
2017-Jun-22 17:27N 55°33' E 014°22'0 0.0
2017-Jun-22 15:27N 55°33' E 014°22'0 0.0
2017-Jun-22 11:51N 55°33' E 014°22'0 0.0
2017-Jun-22 11:21N 55°33' E 014°22'0 0.0
2017-Jun-22 10:51N 55°33' E 014°22'0 0.0
2017-Jun-22 10:27N 55°33' E 014°22'0 0.0
2017-Jun-22 08:57N 55°33' E 014°22'0 0.0
2017-Jun-22 07:21N 55°33' E 014°22'0 0.0
2017-Jun-22 06:21N 55°33' E 014°22'0 0.0
2017-Jun-22 04:27N 55°33' E 014°22'0 0.0
2017-Jun-22 03:57N 55°33' E 014°22'0 0.0
2017-Jun-22 03:15N 55°33' E 014°22'0 0.0
2017-Jun-22 02:51N 55°33' E 014°22'0 0.0
2017-Jun-22 02:27N 55°33' E 014°22'0 0.0
2017-Jun-22 00:45N 55°33' E 014°22'0 0.0
2017-Jun-22 00:27N 55°33' E 014°22'0 0.0
2017-Jun-21 23:33N 55°33' E 014°22'0 0.0
2017-Jun-21 23:21N 55°33' E 014°22'0 0.0
2017-Jun-21 22:09N 55°33' E 014°22'0 0.0
2017-Jun-21 21:57N 55°33' E 014°22'0 0.0
2017-Jun-21 21:27N 55°33' E 014°22'0 0.0
2017-Jun-21 20:33N 55°33' E 014°22'0 0.1
2017-Jun-21 20:27N 55°33' E 014°22'0 0.0
2017-Jun-21 19:57N 55°33' E 014°22'0 0.0
2017-Jun-21 18:33N 55°33' E 014°22'0 0.1
2017-Jun-21 18:27N 55°33' E 014°22'0 0.0
2017-Jun-21 17:57N 55°33' E 014°22'0 0.0
2017-Jun-21 17:03N 55°33' E 014°22'0 0.0
2017-Jun-21 16:39N 55°33' E 014°22'0 0.0
2017-Jun-21 16:27N 55°33' E 014°22'0 0.0
2017-Jun-21 14:45N 55°33' E 014°22'0 0.0
2017-Jun-21 14:09N 55°33' E 014°22'1 1.0
2017-Jun-21 13:30N 55°34' E 014°23'1 1.2
2017-Jun-21 13:00N 55°34' E 014°24'1 2.3
2017-Jun-21 12:27N 55°34' E 014°26'2 4.9
2017-Jun-21 11:58N 55°34' E 014°30'3 5.7
2017-Jun-21 11:30N 55°33' E 014°35'4 6.8
2017-Jun-21 10:59N 55°32' E 014°40'2 4.5
2017-Jun-21 10:29N 55°31' E 014°44'2 3.1
2017-Jun-21 09:55N 55°30' E 014°47'2 3.8
2017-Jun-21 09:30N 55°30' E 014°49'2 4.0
2017-Jun-21 09:00N 55°29' E 014°53'1 0.9
2017-Jun-21 08:17N 55°29' E 014°54'0 1.5
2017-Jun-21 08:00N 55°29' E 014°53'2 3.0
2017-Jun-21 07:29N 55°30' E 014°51'2 2.9
2017-Jun-21 06:58N 55°30' E 014°48'1 3.0
2017-Jun-21 06:29N 55°31' E 014°46'2 2.9
2017-Jun-21 05:57N 55°31' E 014°43'1 2.9
2017-Jun-21 05:27N 55°30' E 014°41'1 3.0
2017-Jun-21 04:57N 55°30' E 014°38'4 2.9
2017-Jun-21 03:45N 55°27' E 014°34'1 3.1
2017-Jun-21 03:29N 55°27' E 014°33'2 3.5
2017-Jun-21 02:59N 55°28' E 014°31'4 7.7
2017-Jun-21 02:29N 55°31' E 014°26'4 7.7
2017-Jun-21 02:00N 55°33' E 014°22'0 0.2
2017-Jun-21 00:14N 55°33' E 014°22'0 0.0
2017-Jun-20 23:20N 55°33' E 014°22'0 0.0
2017-Jun-20 21:56N 55°33' E 014°22'0 0.0
2017-Jun-20 21:14N 55°33' E 014°22'0 0.0
2017-Jun-20 20:56N 55°33' E 014°22'0 0.0
2017-Jun-20 20:14N 55°33' E 014°22'0 0.0
2017-Jun-20 19:56N 55°33' E 014°22'0 0.0
2017-Jun-20 16:56N 55°33' E 014°22'0 0.0
2017-Jun-20 14:50N 55°33' E 014°22'0 0.0
2017-Jun-20 13:08N 55°33' E 014°22'0 0.0
2017-Jun-20 12:44N 55°33' E 014°22'0 0.0
2017-Jun-20 12:26N 55°33' E 014°22'0 0.0
2017-Jun-20 11:02N 55°33' E 014°22'0 0.0
2017-Jun-20 10:50N 55°33' E 014°22'0 0.0
2017-Jun-20 08:26N 55°33' E 014°22'0 0.0
2017-Jun-20 07:50N 55°33' E 014°22'0 0.0
2017-Jun-20 07:26N 55°33' E 014°22'0 0.0
2017-Jun-20 04:02N 55°33' E 014°22'0 0.0
2017-Jun-20 03:32N 55°33' E 014°22'0 0.1
2017-Jun-20 03:26N 55°33' E 014°22'0 0.0
2017-Jun-20 00:38N 55°33' E 014°22'0 0.0
2017-Jun-20 00:14N 55°33' E 014°22'0 0.0
2017-Jun-19 23:32N 55°33' E 014°22'0 0.0
2017-Jun-19 23:02N 55°33' E 014°22'0 0.0
2017-Jun-19 19:38N 55°33' E 014°22'0 0.0
2017-Jun-19 19:26N 55°33' E 014°22'0 0.0
2017-Jun-19 18:14N 55°33' E 014°22'0 0.0
2017-Jun-19 17:08N 55°33' E 014°22'0 0.0
2017-Jun-19 16:50N 55°33' E 014°22'0 0.0
2017-Jun-19 16:26N 55°33' E 014°22'0 0.0
2017-Jun-19 15:02N 55°33' E 014°22'0 0.0
2017-Jun-19 14:50N 55°33' E 014°22'0 0.0
2017-Jun-19 14:02N 55°33' E 014°22'1 2.7
2017-Jun-19 13:30N 55°34' E 014°24'3 5.8
2017-Jun-19 12:58N 55°33' E 014°29'2 3.8
2017-Jun-19 12:26N 55°32' E 014°33'2 3.7
2017-Jun-19 12:00N 55°32' E 014°35'2 3.5
2017-Jun-19 11:28N 55°31' E 014°39'2 3.4
2017-Jun-19 10:59N 55°31' E 014°41'2 3.5
2017-Jun-19 10:30N 55°31' E 014°44'2 3.5
2017-Jun-19 10:00N 55°30' E 014°47'2 3.6
2017-Jun-19 09:30N 55°30' E 014°50'2 4.6
2017-Jun-19 09:00N 55°30' E 014°54'1 0.6
2017-Jun-19 07:32N 55°29' E 014°53'0 3.1
2017-Jun-19 07:26N 55°29' E 014°53'1 3.0
2017-Jun-19 06:58N 55°30' E 014°51'2 2.9
2017-Jun-19 06:27N 55°30' E 014°48'1 3.0
2017-Jun-19 06:00N 55°31' E 014°46'5 2.9
2017-Jun-19 04:22N 55°29' E 014°39'1 3.0
2017-Jun-19 03:57N 55°28' E 014°37'1 3.0
2017-Jun-19 03:30N 55°27' E 014°35'2 3.6
2017-Jun-19 03:00N 55°27' E 014°32'4 7.6
2017-Jun-19 02:30N 55°30' E 014°28'4 7.9
2017-Jun-19 01:59N 55°33' E 014°23'1 0.9
2017-Jun-19 01:02N 55°33' E 014°22'0 0.1
2017-Jun-19 00:56N 55°33' E 014°22'0 0.0
2017-Jun-18 22:50N 55°33' E 014°22'0 0.0
2017-Jun-18 22:26N 55°33' E 014°22'0 0.0
2017-Jun-18 21:44N 55°33' E 014°22'0 0.0
2017-Jun-18 21:14N 55°33' E 014°22'0 0.0
2017-Jun-18 20:56N 55°33' E 014°22'0 0.0
2017-Jun-18 20:26N 55°33' E 014°22'0 0.0
2017-Jun-18 19:08N 55°33' E 014°22'0 0.0
2017-Jun-18 18:50N 55°33' E 014°22'0 0.0
2017-Jun-18 18:26N 55°33' E 014°22'0 0.0
2017-Jun-18 16:32N 55°33' E 014°22'0 0.0
2017-Jun-18 16:14N 55°33' E 014°22'0 0.0
2017-Jun-18 15:52N 55°33' E 014°22'3 6.5
2017-Jun-18 15:25N 55°35' E 014°26'4 7.1
2017-Jun-18 14:50N 55°37' E 014°33'2 2.4
2017-Jun-18 13:59N 55°37' E 014°36'1 2.9
2017-Jun-18 13:29N 55°37' E 014°39'2 2.9
2017-Jun-18 12:58N 55°37' E 014°41'1 3.0
2017-Jun-18 12:30N 55°37' E 014°44'2 3.0
2017-Jun-18 12:00N 55°38' E 014°46'1 2.8
2017-Jun-18 11:28N 55°39' E 014°49'1 2.1
2017-Jun-18 11:00N 55°39' E 014°50'2 0.3
2017-Jun-18 05:31N 55°38' E 014°47'3 3.1
2017-Jun-18 04:26N 55°38' E 014°41'2 3.1
2017-Jun-18 03:53N 55°37' E 014°39'2 3.1
2017-Jun-18 03:23N 55°37' E 014°36'1 3.1
2017-Jun-18 03:00N 55°36' E 014°34'3 5.6
2017-Jun-18 02:26N 55°35' E 014°29'3 7.6
2017-Jun-18 01:59N 55°34' E 014°23'1 2.2
2017-Jun-18 01:30N 55°33' E 014°22'0 0.0
2017-Jun-18 01:00N 55°33' E 014°22'0 0.0
2017-Jun-18 00:30N 55°33' E 014°22'0 0.0
2017-Jun-18 00:00N 55°33' E 014°22'0 0.0
2017-Jun-17 23:30N 55°33' E 014°22'0 0.0
2017-Jun-17 22:54N 55°33' E 014°22'0 0.0
2017-Jun-17 22:30N 55°33' E 014°22'0 0.0
2017-Jun-17 21:42N 55°33' E 014°22'0 0.0
2017-Jun-17 21:24N 55°33' E 014°22'0 0.0
2017-Jun-17 21:00N 55°33' E 014°22'0 0.0
2017-Jun-17 20:30N 55°33' E 014°22'0 0.0
2017-Jun-17 19:54N 55°33' E 014°22'  
Track history (hours):
 
Tides and Currents Weather Stations Pressure Air Temp Water Temp Dewpoint Dewpoint Depression Visibility Wind Speed Wind Dir Waves Ship Positions

Linzy

Last reported at 2017-Jun-27 19:50 UTC. Time now 2017-Jun-27 20:52 UTC.
Position N 55°33' E 014°22'.

Length 15 m.

Type: Fishing. MMSI: 265507290.

Date/timePositionNaut miles runAvg speedWind from/ knotsBaromVisibWave heightAir tempDewpointWater temp
2017-Jun-27 19:50N 55°33' E 014°22'0 0.0
2017-Jun-27 19:20N 55°33' E 014°22'0 0.0
2017-Jun-27 18:56N 55°33' E 014°22'0 0.0
2017-Jun-27 18:26N 55°33' E 014°22'0 0.0
2017-Jun-27 17:50N 55°33' E 014°22'0 0.0
2017-Jun-27 17:14N 55°33' E 014°22'0 0.0
2017-Jun-27 16:56N 55°33' E 014°22'0 0.0
2017-Jun-27 15:44N 55°33' E 014°22'0 0.0
2017-Jun-27 15:20N 55°33' E 014°22'0 0.0
2017-Jun-27 14:50N 55°33' E 014°22'0 0.0
2017-Jun-27 14:26N 55°33' E 014°22'0 0.0
2017-Jun-27 13:20N 55°33' E 014°22'0 0.0
2017-Jun-27 12:56N 55°33' E 014°22'0 0.0
2017-Jun-27 12:19N 55°33' E 014°22'2 5.4
2017-Jun-27 12:00N 55°34' E 014°24'2 3.6
2017-Jun-27 11:26N 55°33' E 014°28'2 5.1
2017-Jun-27 10:59N 55°33' E 014°32'3 6.2
2017-Jun-27 10:28N 55°32' E 014°37'3 6.0
2017-Jun-27 09:55N 55°31' E 014°43'3 5.9
2017-Jun-27 09:29N 55°30' E 014°47'3 5.4
2017-Jun-27 08:55N 55°30' E 014°53'1 0.8
2017-Jun-27 08:03N 55°29' E 014°53'0 0.8
2017-Jun-27 07:59N 55°29' E 014°53'1 3.1
2017-Jun-27 07:30N 55°30' E 014°51'2 3.0
2017-Jun-27 06:59N 55°30' E 014°49'4 2.7
2017-Jun-27 05:23N 55°30' E 014°41'1 2.9
2017-Jun-27 04:55N 55°29' E 014°39'1 3.0
2017-Jun-27 04:30N 55°28' E 014°37'2 3.0
2017-Jun-27 03:59N 55°28' E 014°34'1 3.1
2017-Jun-27 03:30N 55°27' E 014°32'2 3.0
2017-Jun-27 02:59N 55°27' E 014°29'4 7.8
2017-Jun-27 02:28N 55°30' E 014°26'4 8.0
2017-Jun-27 01:59N 55°33' E 014°22'0 0.2
2017-Jun-27 00:20N 55°33' E 014°22'0 0.0
2017-Jun-26 23:44N 55°33' E 014°22'0 0.0
2017-Jun-26 23:08N 55°33' E 014°22'0 0.0
2017-Jun-26 22:50N 55°33' E 014°22'0 0.0
2017-Jun-26 22:20N 55°33' E 014°22'0 0.0
2017-Jun-26 20:56N 55°33' E 014°22'0 0.0
2017-Jun-26 20:08N 55°33' E 014°22'0 0.0
2017-Jun-26 19:32N 55°33' E 014°22'0 0.0
2017-Jun-26 19:20N 55°33' E 014°22'0 0.0
2017-Jun-26 18:50N 55°33' E 014°22'0 0.0
2017-Jun-26 17:44N 55°33' E 014°22'0 0.0
2017-Jun-26 17:26N 55°33' E 014°22'0 0.0
2017-Jun-26 16:56N 55°33' E 014°22'0 0.0
2017-Jun-26 16:20N 55°33' E 014°22'0 0.0
2017-Jun-26 15:56N 55°33' E 014°22'0 0.0
2017-Jun-26 14:32N 55°33' E 014°22'0 0.0
2017-Jun-26 13:38N 55°33' E 014°22'0 0.0
2017-Jun-26 13:26N 55°33' E 014°22'0 0.0
2017-Jun-26 12:26N 55°33' E 014°22'0 0.0
2017-Jun-26 11:02N 55°33' E 014°22'0 0.0
2017-Jun-26 10:50N 55°33' E 014°22'0 0.0
2017-Jun-26 10:26N 55°33' E 014°22'0 0.0
2017-Jun-26 09:56N 55°33' E 014°22'0 0.0
2017-Jun-26 09:26N 55°33' E 014°22'0 0.0
2017-Jun-26 08:14N 55°33' E 014°22'0 0.0
2017-Jun-26 06:32N 55°33' E 014°22'0 0.0
2017-Jun-26 06:26N 55°33' E 014°22'0 0.0
2017-Jun-26 04:44N 55°33' E 014°22'0 0.0
2017-Jun-26 04:14N 55°33' E 014°22'0 0.0
2017-Jun-26 03:56N 55°33' E 014°22'0 0.0
2017-Jun-26 03:14N 55°33' E 014°22'0 0.0
2017-Jun-26 02:56N 55°33' E 014°22'0 0.0
2017-Jun-26 01:44N 55°33' E 014°22'0 0.0
2017-Jun-26 01:26N 55°33' E 014°22'0 0.0
2017-Jun-26 00:50N 55°33' E 014°22'0 0.0
2017-Jun-26 00:26N 55°33' E 014°22'0 0.0
2017-Jun-25 23:02N 55°33' E 014°22'0 0.0
2017-Jun-25 22:50N 55°33' E 014°22'0 0.0
2017-Jun-25 22:26N 55°33' E 014°22'0 0.0
2017-Jun-25 21:32N 55°33' E 014°22'0 0.0
2017-Jun-25 20:26N 55°33' E 014°22'0 0.0
2017-Jun-25 19:56N 55°33' E 014°22'0 0.0
2017-Jun-25 19:08N 55°33' E 014°22'0 0.0
2017-Jun-25 17:50N 55°33' E 014°22'0 0.0
2017-Jun-25 17:26N 55°33' E 014°22'0 0.0
2017-Jun-25 16:56N 55°33' E 014°22'0 0.0
2017-Jun-25 16:26N 55°33' E 014°22'0 0.0
2017-Jun-25 14:02N 55°33' E 014°22'0 0.0
2017-Jun-25 12:50N 55°33' E 014°22'0 0.0
2017-Jun-25 12:08N 55°33' E 014°22'0 0.0
2017-Jun-25 11:56N 55°33' E 014°22'0 0.0
2017-Jun-25 11:14N 55°33' E 014°22'0 0.0
2017-Jun-25 10:44N 55°33' E 014°22'0 0.0
2017-Jun-25 08:38N 55°33' E 014°22'0 0.0
2017-Jun-25 08:14N 55°33' E 014°22'0 0.0
2017-Jun-25 07:56N 55°33' E 014°22'0 0.0
2017-Jun-25 07:14N 55°33' E 014°22'0 0.0
2017-Jun-25 06:50N 55°33' E 014°22'0 0.0
2017-Jun-25 06:26N 55°33' E 014°22'0 0.0
2017-Jun-25 05:08N 55°33' E 014°22'0 0.0
2017-Jun-25 03:38N 55°33' E 014°22'0 0.0
2017-Jun-25 03:20N 55°33' E 014°22'0 0.0
2017-Jun-25 02:14N 55°33' E 014°22'0 0.0
2017-Jun-25 01:56N 55°33' E 014°22'0 0.0
2017-Jun-25 01:20N 55°33' E 014°22'0 0.0
2017-Jun-25 00:32N 55°33' E 014°22'0 0.0
2017-Jun-25 00:08N 55°33' E 014°22'0 0.0
2017-Jun-24 23:50N 55°33' E 014°22'0 0.0
2017-Jun-24 23:20N 55°33' E 014°22'0 0.0
2017-Jun-24 22:44N 55°33' E 014°22'0 0.0
2017-Jun-24 22:14N 55°33' E 014°22'0 0.0
2017-Jun-24 21:56N 55°33' E 014°22'0 0.0
2017-Jun-24 20:44N 55°33' E 014°22'0 0.0
2017-Jun-24 20:20N 55°33' E 014°22'0 0.0
2017-Jun-24 19:50N 55°33' E 014°22'0 0.0
2017-Jun-24 19:26N 55°33' E 014°22'0 0.0
2017-Jun-24 18:32N 55°33' E 014°22'0 0.0
2017-Jun-24 18:20N 55°33' E 014°22'0 0.0
2017-Jun-24 17:56N 55°33' E 014°22'0 0.0
2017-Jun-24 17:26N 55°33' E 014°22'0 0.0
2017-Jun-24 16:56N 55°33' E 014°22'0 0.0
2017-Jun-24 16:08N 55°33' E 014°22'0 0.0
2017-Jun-24 15:56N 55°33' E 014°22'0 0.0
2017-Jun-24 15:20N 55°33' E 014°22'0 0.0
2017-Jun-24 14:57N 55°33' E 014°22'0 0.0
2017-Jun-24 13:27N 55°33' E 014°22'0 0.0
2017-Jun-24 12:32N 55°33' E 014°22'0 0.0
2017-Jun-24 12:21N 55°33' E 014°22'0 0.0
2017-Jun-24 11:44N 55°33' E 014°22'0 0.0
2017-Jun-24 11:27N 55°33' E 014°22'0 0.0
2017-Jun-24 10:51N 55°33' E 014°22'0 0.0
2017-Jun-24 10:21N 55°33' E 014°22'0 0.0
2017-Jun-24 09:03N 55°33' E 014°22'0 0.0
2017-Jun-24 07:51N 55°33' E 014°22'0 0.0
2017-Jun-24 07:27N 55°33' E 014°22'0 0.0
2017-Jun-24 06:57N 55°33' E 014°22'0 0.0
2017-Jun-24 06:27N 55°33' E 014°22'0 0.0
2017-Jun-24 05:51N 55°33' E 014°22'0 0.0
2017-Jun-24 05:27N 55°33' E 014°22'0 0.0
2017-Jun-24 04:51N 55°33' E 014°22'0 0.0
2017-Jun-24 04:15N 55°33' E 014°22'0 0.0
2017-Jun-24 03:57N 55°33' E 014°22'0 0.0
2017-Jun-24 03:27N 55°33' E 014°22'0 0.0
2017-Jun-24 02:57N 55°33' E 014°22'0 0.0
2017-Jun-24 02:27N 55°33' E 014°22'0 0.0
2017-Jun-24 01:51N 55°33' E 014°22'0 0.0
2017-Jun-24 01:27N 55°33' E 014°22'0 0.0
2017-Jun-24 00:51N 55°33' E 014°22'0 0.0
2017-Jun-24 00:27N 55°33' E 014°22'0 0.0
2017-Jun-23 23:15N 55°33' E 014°22'0 0.0
2017-Jun-23 22:57N 55°33' E 014°22'0 0.0
2017-Jun-23 22:27N 55°33' E 014°22'0 0.0
2017-Jun-23 21:21N 55°33' E 014°22'0 0.0
2017-Jun-23 20:57N 55°33' E 014°22'0 0.0
2017-Jun-23 20:09N 55°33' E 014°22'0 0.0
2017-Jun-23 19:51N 55°33' E 014°22'0 0.0
2017-Jun-23 19:27N 55°33' E 014°22'0 0.0
2017-Jun-23 18:45N 55°33' E 014°22'0 0.0
2017-Jun-23 18:27N 55°33' E 014°22'0 0.0
2017-Jun-23 17:51N 55°33' E 014°22'0 0.0
2017-Jun-23 15:45N 55°33' E 014°22'0 0.0
2017-Jun-23 15:27N 55°33' E 014°22'0 0.0
2017-Jun-23 14:57N 55°33' E 014°22'0 0.0
2017-Jun-23 14:27N 55°33' E 014°22'0 0.0
2017-Jun-23 13:03N 55°33' E 014°22'0 0.0
2017-Jun-23 12:57N 55°33' E 014°22'0 0.0
2017-Jun-23 12:27N 55°33' E 014°22'0 0.0
2017-Jun-23 11:51N 55°33' E 014°22'0 0.0
2017-Jun-23 11:27N 55°33' E 014°22'0 0.0
2017-Jun-23 10:57N 55°33' E 014°22'0 0.0
2017-Jun-23 10:27N 55°33' E 014°22'0 0.0
2017-Jun-23 09:57N 55°33' E 014°22'0 0.0
2017-Jun-23 09:30N 55°33' E 014°22'0 0.0
2017-Jun-23 06:39N 55°33' E 014°22'0 0.0
2017-Jun-23 06:27N 55°33' E 014°22'0 0.0
2017-Jun-23 05:57N 55°33' E 014°22'0 0.0
2017-Jun-23 05:27N 55°33' E 014°22'0 0.0
2017-Jun-23 04:57N 55°33' E 014°22'0 0.0
2017-Jun-23 04:21N 55°33' E 014°22'0 0.0
2017-Jun-23 03:39N 55°33' E 014°22'0 0.0
2017-Jun-23 03:21N 55°33' E 014°22'0 0.0
2017-Jun-23 02:51N 55°33' E 014°22'0 0.0
2017-Jun-23 02:27N 55°33' E 014°22'0 0.0
2017-Jun-23 01:45N 55°33' E 014°22'0 0.0
2017-Jun-23 01:15N 55°33' E 014°22'0 0.0
2017-Jun-23 00:39N 55°33' E 014°22'0 0.0
2017-Jun-22 23:15N 55°33' E 014°22'0 0.0
2017-Jun-22 22:54N 55°33' E 014°22'0 0.0
2017-Jun-22 22:27N 55°33' E 014°22'0 0.0
2017-Jun-22 21:27N 55°33' E 014°22'0 0.0
2017-Jun-22 20:57N 55°33' E 014°22'0 0.0
2017-Jun-22 18:57N 55°33' E 014°22'0 0.0
2017-Jun-22 18:27N 55°33' E 014°22'0 0.0
2017-Jun-22 17:57N 55°33' E 014°22'0 0.0
2017-Jun-22 17:27N 55°33' E 014°22'0 0.0
2017-Jun-22 15:27N 55°33' E 014°22'0 0.0
2017-Jun-22 11:51N 55°33' E 014°22'0 0.0
2017-Jun-22 11:21N 55°33' E 014°22'0 0.0
2017-Jun-22 10:51N 55°33' E 014°22'0 0.0
2017-Jun-22 10:27N 55°33' E 014°22'0 0.0
2017-Jun-22 08:57N 55°33' E 014°22'0 0.0
2017-Jun-22 07:21N 55°33' E 014°22'0 0.0
2017-Jun-22 06:21N 55°33' E 014°22'0 0.0
2017-Jun-22 04:27N 55°33' E 014°22'0 0.0
2017-Jun-22 03:57N 55°33' E 014°22'0 0.0
2017-Jun-22 03:15N 55°33' E 014°22'0 0.0
2017-Jun-22 02:51N 55°33' E 014°22'0 0.0
2017-Jun-22 02:27N 55°33' E 014°22'0 0.0
2017-Jun-22 00:45N 55°33' E 014°22'0 0.0
2017-Jun-22 00:27N 55°33' E 014°22'0 0.0
2017-Jun-21 23:33N 55°33' E 014°22'0 0.0
2017-Jun-21 23:21N 55°33' E 014°22'0 0.0
2017-Jun-21 22:09N 55°33' E 014°22'0 0.0
2017-Jun-21 21:57N 55°33' E 014°22'0 0.0
2017-Jun-21 21:27N 55°33' E 014°22'0 0.0
2017-Jun-21 20:33N 55°33' E 014°22'0 0.1
2017-Jun-21 20:27N 55°33' E 014°22'0 0.0
2017-Jun-21 19:57N 55°33' E 014°22'0 0.0
2017-Jun-21 18:33N 55°33' E 014°22'0 0.1
2017-Jun-21 18:27N 55°33' E 014°22'0 0.0
2017-Jun-21 17:57N 55°33' E 014°22'0 0.0
2017-Jun-21 17:03N 55°33' E 014°22'0 0.0
2017-Jun-21 16:39N 55°33' E 014°22'0 0.0
2017-Jun-21 16:27N 55°33' E 014°22'0 0.0
2017-Jun-21 14:45N 55°33' E 014°22'0 0.0
2017-Jun-21 14:09N 55°33' E 014°22'1 1.0
2017-Jun-21 13:30N 55°34' E 014°23'1 1.2
2017-Jun-21 13:00N 55°34' E 014°24'1 2.3
2017-Jun-21 12:27N 55°34' E 014°26'2 4.9
2017-Jun-21 11:58N 55°34' E 014°30'3 5.7
2017-Jun-21 11:30N 55°33' E 014°35'4 6.8
2017-Jun-21 10:59N 55°32' E 014°40'2 4.5
2017-Jun-21 10:29N 55°31' E 014°44'2 3.1
2017-Jun-21 09:55N 55°30' E 014°47'2 3.8
2017-Jun-21 09:30N 55°30' E 014°49'2 4.0
2017-Jun-21 09:00N 55°29' E 014°53'1 0.9
2017-Jun-21 08:17N 55°29' E 014°54'0 1.5
2017-Jun-21 08:00N 55°29' E 014°53'2 3.0
2017-Jun-21 07:29N 55°30' E 014°51'2 2.9
2017-Jun-21 06:58N 55°30' E 014°48'1 3.0
2017-Jun-21 06:29N 55°31' E 014°46'2 2.9
2017-Jun-21 05:57N 55°31' E 014°43'1 2.9
2017-Jun-21 05:27N 55°30' E 014°41'1 3.0
2017-Jun-21 04:57N 55°30' E 014°38'4 2.9
2017-Jun-21 03:45N 55°27' E 014°34'1 3.1
2017-Jun-21 03:29N 55°27' E 014°33'2 3.5
2017-Jun-21 02:59N 55°28' E 014°31'4 7.7
2017-Jun-21 02:29N 55°31' E 014°26'4 7.7
2017-Jun-21 02:00N 55°33' E 014°22'0 0.2
2017-Jun-21 00:14N 55°33' E 014°22'0 0.0
2017-Jun-20 23:20N 55°33' E 014°22'0 0.0
2017-Jun-20 21:56N 55°33' E 014°22'0 0.0
2017-Jun-20 21:14N 55°33' E 014°22'0 0.0
2017-Jun-20 20:56N 55°33' E 014°22'0 0.0
2017-Jun-20 20:14N 55°33' E 014°22'0 0.0
2017-Jun-20 19:56N 55°33' E 014°22'0 0.0
2017-Jun-20 16:56N 55°33' E 014°22'0 0.0
2017-Jun-20 14:50N 55°33' E 014°22'0 0.0
2017-Jun-20 13:08N 55°33' E 014°22'0 0.0
2017-Jun-20 12:44N 55°33' E 014°22'0 0.0
2017-Jun-20 12:26N 55°33' E 014°22'0 0.0
2017-Jun-20 11:02N 55°33' E 014°22'0 0.0
2017-Jun-20 10:50N 55°33' E 014°22'0 0.0
2017-Jun-20 08:26N 55°33' E 014°22'0 0.0
2017-Jun-20 07:50N 55°33' E 014°22'0 0.0
2017-Jun-20 07:26N 55°33' E 014°22'0 0.0
2017-Jun-20 04:02N 55°33' E 014°22'0 0.0
2017-Jun-20 03:32N 55°33' E 014°22'0 0.1
2017-Jun-20 03:26N 55°33' E 014°22'0 0.0
2017-Jun-20 00:38N 55°33' E 014°22'0 0.0
2017-Jun-20 00:14N 55°33' E 014°22'0 0.0
2017-Jun-19 23:32N 55°33' E 014°22'0 0.0
2017-Jun-19 23:02N 55°33' E 014°22'0 0.0
2017-Jun-19 19:38N 55°33' E 014°22'0 0.0
2017-Jun-19 19:26N 55°33' E 014°22'0 0.0
2017-Jun-19 18:14N 55°33' E 014°22'0 0.0
2017-Jun-19 17:08N 55°33' E 014°22'0 0.0
2017-Jun-19 16:50N 55°33' E 014°22'0 0.0
2017-Jun-19 16:26N 55°33' E 014°22'0 0.0
2017-Jun-19 15:02N 55°33' E 014°22'0 0.0
2017-Jun-19 14:50N 55°33' E 014°22'0 0.0
2017-Jun-19 14:02N 55°33' E 014°22'1 2.7
2017-Jun-19 13:30N 55°34' E 014°24'3 5.8
2017-Jun-19 12:58N 55°33' E 014°29'2 3.8
2017-Jun-19 12:26N 55°32' E 014°33'2 3.7
2017-Jun-19 12:00N 55°32' E 014°35'2 3.5
2017-Jun-19 11:28N 55°31' E 014°39'2 3.4
2017-Jun-19 10:59N 55°31' E 014°41'2 3.5
2017-Jun-19 10:30N 55°31' E 014°44'2 3.5
2017-Jun-19 10:00N 55°30' E 014°47'2 3.6
2017-Jun-19 09:30N 55°30' E 014°50'2 4.6
2017-Jun-19 09:00N 55°30' E 014°54'1 0.6
2017-Jun-19 07:32N 55°29' E 014°53'0 3.1
2017-Jun-19 07:26N 55°29' E 014°53'1 3.0
2017-Jun-19 06:58N 55°30' E 014°51'2 2.9
2017-Jun-19 06:27N 55°30' E 014°48'1 3.0
2017-Jun-19 06:00N 55°31' E 014°46'5 2.9
2017-Jun-19 04:22N 55°29' E 014°39'1 3.0
2017-Jun-19 03:57N 55°28' E 014°37'1 3.0
2017-Jun-19 03:30N 55°27' E 014°35'2 3.6
2017-Jun-19 03:00N 55°27' E 014°32'4 7.6
2017-Jun-19 02:30N 55°30' E 014°28'4 7.9
2017-Jun-19 01:59N 55°33' E 014°23'1 0.9
2017-Jun-19 01:02N 55°33' E 014°22'0 0.1
2017-Jun-19 00:56N 55°33' E 014°22'0 0.0
2017-Jun-18 22:50N 55°33' E 014°22'0 0.0
2017-Jun-18 22:26N 55°33' E 014°22'0 0.0
2017-Jun-18 21:44N 55°33' E 014°22'0 0.0
2017-Jun-18 21:14N 55°33' E 014°22'0 0.0
2017-Jun-18 20:56N 55°33' E 014°22'0 0.0
2017-Jun-18 20:26N 55°33' E 014°22'0 0.0
2017-Jun-18 19:08N 55°33' E 014°22'0 0.0
2017-Jun-18 18:50N 55°33' E 014°22'0 0.0
2017-Jun-18 18:26N 55°33' E 014°22'0 0.0
2017-Jun-18 16:32N 55°33' E 014°22'0 0.0
2017-Jun-18 16:14N 55°33' E 014°22'0 0.0
2017-Jun-18 15:52N 55°33' E 014°22'3 6.5
2017-Jun-18 15:25N 55°35' E 014°26'4 7.1
2017-Jun-18 14:50N 55°37' E 014°33'2 2.4
2017-Jun-18 13:59N 55°37' E 014°36'1 2.9
2017-Jun-18 13:29N 55°37' E 014°39'2 2.9
2017-Jun-18 12:58N 55°37' E 014°41'1 3.0
2017-Jun-18 12:30N 55°37' E 014°44'2 3.0
2017-Jun-18 12:00N 55°38' E 014°46'1 2.8
2017-Jun-18 11:28N 55°39' E 014°49'1 2.1
2017-Jun-18 11:00N 55°39' E 014°50'2 0.3
2017-Jun-18 05:31N 55°38' E 014°47'3 3.1
2017-Jun-18 04:26N 55°38' E 014°41'2 3.1
2017-Jun-18 03:53N 55°37' E 014°39'2 3.1
2017-Jun-18 03:23N 55°37' E 014°36'1 3.1
2017-Jun-18 03:00N 55°36' E 014°34'3 5.6
2017-Jun-18 02:26N 55°35' E 014°29'3 7.6
2017-Jun-18 01:59N 55°34' E 014°23'1 2.2
2017-Jun-18 01:30N 55°33' E 014°22'0 0.0
2017-Jun-18 01:00N 55°33' E 014°22'0 0.0
2017-Jun-18 00:30N 55°33' E 014°22'0 0.0
2017-Jun-18 00:00N 55°33' E 014°22'0 0.0
2017-Jun-17 23:30N 55°33' E 014°22'0 0.0
2017-Jun-17 22:54N 55°33' E 014°22'0 0.0
2017-Jun-17 22:30N 55°33' E 014°22'0 0.0
2017-Jun-17 21:42N 55°33' E 014°22'0 0.0
2017-Jun-17 21:24N 55°33' E 014°22'0 0.0
2017-Jun-17 21:00N 55°33' E 014°22'0 0.0
2017-Jun-17 20:30N 55°33' E 014°22'0 0.0
2017-Jun-17 19:54N 55°33' E 014°22'  

Dump ship's entire track history